Time;durP1;ratioP1;P1;durP2;ratioP2;P2;SDS_P1;SDS_P2;PMS_P1;PMS_P2;Temp;Humidity;BMP_temperature;BMP_pressure;BME280_temperature;BME280_humidity;BME280_pressure;Samples;Min_cycle;Max_cycle;Signal;HPM_P1;HPM_P2
2021/11/12 00:02:09;;;;;;;;;;;;;;;;;;5045678;28;19929;-65
2021/11/12 00:04:25;;;;;;;;;;;;;;;;;;5046636;28;20400;-66
2021/11/12 00:12:29;;;;;;;;;;;;;;;;;;5066574;28;19957;-66
2021/11/12 00:14:57;;;;;;;;;;;;;;;;;;5069310;28;19935;-66
2021/11/12 00:17:24;;;;;;;;;;;;;;;;;;5068916;28;19925;-66
2021/11/12 00:19:51;;;;;;;;;;;;;;;;;;5075776;28;19956;-66
2021/11/12 00:22:20;;;;;;;;;;;;;;;;;;5070742;28;21484;-65
2021/11/12 00:24:47;;;;;;;;;;;;;;;;;;5073891;28;19929;-66
2021/11/12 00:27:15;;;;;;;;;;;;;;;;;;5072805;28;19928;-66
2021/11/12 00:29:45;;;;;;;;;;;;;;;;;;5075189;28;19925;-67
2021/11/12 00:32:19;;;;;;;;;;;;;;;;;;5070303;28;20007;-66
2021/11/12 00:34:56;;;;;;;;;;;;;;;;;;5064336;28;19929;-66
2021/11/12 00:37:29;;;;;;;;;;;;;;;;;;5073651;28;19967;-67
2021/11/12 00:40:00;;;;;;;;;;;;;;;;;;5065206;28;20075;-68
2021/11/12 00:42:34;;;;;;;;;;;;;;;;;;5068556;28;20449;-67
2021/11/12 00:45:04;;;;;;;;;;;;;;;;;;5064443;28;19925;-66
2021/11/12 00:47:40;;;;;;;;;;;;;;;;;;5067078;28;19932;-66
2021/11/12 00:50:24;;;;;;;;;;;;;;;;;;5066402;28;19932;-67
2021/11/12 00:55:35;;;;;;;;;;;;;;;;;;5065347;28;19924;-66
2021/11/12 00:58:02;;;;;;;;;;;;;;;;;;5072974;28;19932;-66
2021/11/12 01:00:29;;;;;;;;;;;;;;;;;;5070568;28;19931;-66
2021/11/12 01:02:59;;;;;;;;;;;;;;;;;;5066762;28;19928;-67
2021/11/12 01:05:26;;;;;;;;;;;;;;;;;;5068791;28;19929;-66
2021/11/12 01:07:53;;;;;;;;;;;;;;;;;;5071853;28;19924;-67
2021/11/12 01:10:20;;;;;;;;;;;;;;;;;;5072910;28;20193;-67
2021/11/12 01:12:47;;;;;;;;;;;;;;;;;;5063112;28;19925;-66
2021/11/12 01:15:15;;;;;;;;;;;;;;;;;;5068140;28;19925;-67
2021/11/12 01:17:42;;;;;;;;;;;;;;;;;;5066399;28;19924;-67
2021/11/12 01:20:09;;;;;;;;;;;;;;;;;;5069820;28;19931;-66
2021/11/12 01:22:36;;;;;;;;;;;;;;;;;;5070222;28;19928;-66
2021/11/12 01:25:04;;;;;;;;;;;;;;;;;;5065900;28;19925;-66
2021/11/12 01:27:31;;;;;;;;;;;;;;;;;;5067954;28;19929;-66
2021/11/12 01:29:57;;;;;;;;;;;;;;;;;;5070991;28;20004;-66
2021/11/12 01:32:26;;;;;;;;;;;;;;;;;;5068277;28;19925;-67
2021/11/12 01:34:53;;;;;;;;;;;;;;;;;;5070956;28;19924;-66
2021/11/12 01:37:21;;;;;;;;;;;;;;;;;;5068063;28;19924;-66
2021/11/12 01:39:53;;;;;;;;;;;;;;;;;;5071068;28;20303;-66
2021/11/12 01:42:20;;;;;;;;;;;;;;;;;;5068009;28;20019;-66
2021/11/12 01:44:50;;;;;;;;;;;;;;;;;;5068476;28;19932;-67
2021/11/12 01:47:21;;;;;;;;;;;;;;;;;;5064953;28;19978;-66
2021/11/12 01:49:50;;;;;;;;;;;;;;;;;;5067299;28;20308;-65
2021/11/12 01:52:19;;;;;;;;;;;;;;;;;;5068868;28;19928;-65
2021/11/12 01:54:55;;;;;;;;;;;;;;;;;;5067672;28;20145;-65
2021/11/12 02:00:03;;;;;;;;;;;;;;;;;;5056366;28;19928;-66
2021/11/12 02:02:29;;;;;;;;;;;;;;;;;;5070460;28;20149;-66
2021/11/12 02:04:57;;;;;;;;;;;;;;;;;;5068532;28;19928;-66
2021/11/12 02:07:24;;;;;;;;;;;;;;;;;;5067457;28;19932;-66
2021/11/12 02:09:50;;;;;;;;;;;;;;;;;;5075586;28;20406;-65
2021/11/12 02:12:22;;;;;;;;;;;;;;;;;;5079902;28;19961;-65
2021/11/12 02:14:49;;;;;;;;;;;;;;;;;;5065457;28;19928;-66
2021/11/12 02:17:18;;;;;;;;;;;;;;;;;;5077114;28;19971;-65
2021/11/12 02:19:49;;;;;;;;;;;;;;;;;;5070342;28;20300;-66
2021/11/12 02:22:16;;;;;;;;;;;;;;;;;;5067806;28;19939;-66
2021/11/12 02:24:46;;;;;;;;;;;;;;;;;;5067656;28;19979;-67
2021/11/12 02:27:16;;;;;;;;;;;;;;;;;;5070797;28;19931;-66
2021/11/12 02:29:46;;;;;;;;;;;;;;;;;;5067018;28;20040;-65
2021/11/12 02:32:13;;;;;;;;;;;;;;;;;;5069428;28;19924;-64
2021/11/12 02:34:40;;;;;;;;;;;;;;;;;;5065956;28;19928;-65
2021/11/12 02:37:07;;;;;;;;;;;;;;;;;;5070583;28;19924;-66
2021/11/12 02:39:35;;;;;;;;;;;;;;;;;;5065105;28;19931;-66
2021/11/12 02:42:02;;;;;;;;;;;;;;;;;;5065580;28;19925;-67
2021/11/12 02:44:33;;;;;;;;;;;;;;;;;;5066176;28;20882;-66
2021/11/12 02:47:00;;;;;;;;;;;;;;;;;;5071096;28;19925;-65
2021/11/12 02:49:27;;;;;;;;;;;;;;;;;;5071856;28;19931;-66
2021/11/12 02:51:55;;;;;;;;;;;;;;;;;;5068651;28;19931;-65
2021/11/12 02:54:22;;;;;;;;;;;;;;;;;;5070700;28;20258;-66
2021/11/12 02:56:52;;;;;;;;;;;;;;;;;;5076945;28;20019;-66
2021/11/12 02:59:21;;;;;;;;;;;;;;;;;;5078140;28;19970;-66
2021/11/12 03:01:48;;;;;;;;;;;;;;;;;;5074959;28;19928;-65
2021/11/12 03:04:15;;;;;;;;;;;;;;;;;;5072657;28;19924;-67
2021/11/12 03:06:42;;;;;;;;;;;;;;;;;;5069071;28;19944;-66
2021/11/12 03:09:10;;;;;;;;;;;;;;;;;;5073602;28;19978;-66
2021/11/12 03:11:37;;;;;;;;;;;;;;;;;;5074283;28;19931;-66
2021/11/12 03:14:04;;;;;;;;;;;;;;;;;;5068373;28;19986;-66
2021/11/12 03:16:33;;;;;;;;;;;;;;;;;;5071719;28;20300;-66
2021/11/12 03:19:00;;;;;;;;;;;;;;;;;;5073132;28;19982;-66
2021/11/12 03:21:27;;;;;;;;;;;;;;;;;;5074192;28;19928;-66
2021/11/12 03:23:57;;;;;;;;;;;;;;;;;;5069294;28;19970;-66
2021/11/12 03:26:31;;;;;;;;;;;;;;;;;;5072730;28;20423;-67
2021/11/12 04:02:09;;;;;;;;;;;;;;;;;;5072363;28;19942;-66
2021/11/12 04:04:53;;;;;;;;;;;;;;;;;;5063332;28;19929;-67
2021/11/12 04:17:05;;;;;;;;;;;;;;;;;;5067339;28;19924;-66
2021/11/12 04:18:48;;;;;;;;;;;;;;;;;;5068117;28;19990;-67
2021/11/12 05:03:09;;;;;;;;;;;;;;;;;;5074712;28;19967;-65
2021/11/12 05:11:16;;;;;;;;;;;;;;;;;;5063603;28;19924;-65
2021/11/12 05:44:08;;;;;;;;;;;;;;;;;;5069481;28;19918;-67
2021/11/12 05:46:41;;;;;;;;;;;;;;;;;;5070796;28;19951;-66
2021/11/12 05:52:14;;;;;;;;;;;;;;;;;;5067567;28;19958;-66
2021/11/12 05:57:26;;;;;;;;;;;;;;;;;;5070404;28;19934;-66
2021/11/12 05:59:54;;;;;;;;;;;;;;;;;;5077101;28;19935;-66
2021/11/12 06:02:21;;;;;;;;;;;;;;;;;;5069344;28;19925;-67
2021/11/12 06:04:48;;;;;;;;;;;;;;;;;;5066349;28;19998;-66
2021/11/12 06:07:15;;;;;;;;;;;;;;;;;;5066102;28;19924;-66
2021/11/12 06:09:42;;;;;;;;;;;;;;;;;;5064586;28;19928;-67
2021/11/12 06:12:11;;;;;;;;;;;;;;;;;;5070468;28;19925;-66
2021/11/12 06:14:39;;;;;;;;;;;;;;;;;;5066654;28;20307;-66
2021/11/12 06:17:06;;;;;;;;;;;;;;;;;;5067830;28;19948;-66
2021/11/12 06:19:33;;;;;;;;;;;;;;;;;;5070505;28;20018;-67
2021/11/12 06:21:59;;;;;;;;;;;;;;;;;;5070601;28;19929;-66
2021/11/12 06:24:26;;;;;;;;;;;;;;;;;;5066910;28;20436;-66
2021/11/12 06:26:54;;;;;;;;;;;;;;;;;;5060196;28;20290;-67
2021/11/12 06:29:21;;;;;;;;;;;;;;;;;;5070387;28;20274;-66
2021/11/12 06:31:48;;;;;;;;;;;;;;;;;;5070522;28;20419;-66
2021/11/12 06:34:15;;;;;;;;;;;;;;;;;;5076743;28;20070;-66
2021/11/12 06:36:42;;;;;;;;;;;;;;;;;;5060874;28;19925;-65
2021/11/12 06:39:10;;;;;;;;;;;;;;;;;;5069137;28;19929;-66
2021/11/12 06:41:52;;;;;;;;;;;;;;;;;;5072927;28;20289;-66
2021/11/12 06:49:52;;;;;;;;;;;;;;;;;;5057736;28;20429;-66
2021/11/12 06:52:19;;;;;;;;;;;;;;;;;;5072203;28;20018;-66
2021/11/12 06:54:46;;;;;;;;;;;;;;;;;;5056295;28;19940;-66
2021/11/12 06:57:13;;;;;;;;;;;;;;;;;;5067036;28;19985;-66
2021/11/12 06:59:40;;;;;;;;;;;;;;;;;;5065950;28;20316;-66
2021/11/12 07:02:07;;;;;;;;;;;;;;;;;;5059055;28;19928;-65
2021/11/12 07:04:34;;;;;;;;;;;;;;;;;;5064784;28;19931;-66
2021/11/12 07:07:01;;;;;;;;;;;;;;;;;;5070679;28;19932;-66
2021/11/12 07:09:28;;;;;;;;;;;;;;;;;;5070938;28;20406;-66
2021/11/12 07:11:55;;;;;;;;;;;;;;;;;;5070799;28;19924;-66
2021/11/12 07:14:22;;;;;;;;;;;;;;;;;;5072118;28;19924;-66
2021/11/12 07:16:49;;;;;;;;;;;;;;;;;;5069998;28;19932;-66
2021/11/12 07:19:16;;;;;;;;;;;;;;;;;;5074953;28;19931;-66
2021/11/12 07:21:43;;;;;;;;;;;;;;;;;;5064409;28;19931;-66
2021/11/12 07:24:10;;;;;;;;;;;;;;;;;;5066013;28;20297;-66
2021/11/12 07:26:37;;;;;;;;;;;;;;;;;;5065506;28;19929;-66
2021/11/12 07:29:04;;;;;;;;;;;;;;;;;;5079212;28;19925;-66
2021/11/12 07:31:32;;;;;;;;;;;;;;;;;;5072600;28;19936;-67
2021/11/12 07:34:00;;;;;;;;;;;;;;;;;;5093526;28;19913;-65
2021/11/12 07:36:35;;;;;;;;;;;;;;;;;;5095669;28;19928;-66
2021/11/12 07:39:05;;;;;;;;;;;;;;;;;;5075639;28;19924;-66
2021/11/12 07:41:43;;;;;;;;;;;;;;;;;;5065905;28;19975;-66
2021/11/12 07:44:20;;;;;;;;;;;;;;;;;;5067931;28;19986;-66
2021/11/12 07:46:58;;;;;;;;;;;;;;;;;;5067924;28;19961;-66
2021/11/12 07:49:25;;;;;;;;;;;;;;;;;;5073989;28;19998;-66
2021/11/12 07:51:52;;;;;;;;;;;;;;;;;;5062701;28;19929;-66
2021/11/12 07:54:19;;;;;;;;;;;;;;;;;;5060412;28;19932;-65
2021/11/12 07:56:46;;;;;;;;;;;;;;;;;;5055765;28;19991;-65
2021/11/12 07:59:13;;;;;;;;;;;;;;;;;;5059690;28;19925;-68
2021/11/12 08:01:41;;;;;;;;;;;;;;;;;;5055311;28;19932;-65
2021/11/12 08:04:09;;;;;;;;;;;;;;;;;;5064534;28;20059;-65
2021/11/12 08:06:36;;;;;;;;;;;;;;;;;;5061744;28;20476;-66
2021/11/12 08:09:05;;;;;;;;;;;;;;;;;;5069438;28;19924;-66
2021/11/12 08:11:36;;;;;;;;;;;;;;;;;;5064773;28;19924;-66
2021/11/12 08:14:09;;;;;;;;;;;;;;;;;;5067512;28;20300;-66
2021/11/12 08:19:23;;;;;;;;;;;;;;;;;;5060318;28;20113;-66
2021/11/12 08:21:57;;;;;;;;;;;;;;;;;;5068632;28;20385;-66
2021/11/12 08:24:34;;;;;;;;;;;;;;;;;;5062348;28;19932;-66
2021/11/12 08:27:08;;;;;;;;;;;;;;;;;;5062416;28;19969;-66
2021/11/12 08:29:47;;;;;;;;;;;;;;;;;;5060708;28;20408;-65
2021/11/12 08:35:02;;;;;;;;;;;;;;;;;;5051143;28;19920;-66
2021/11/12 08:37:42;;;;;;;;;;;;;;;;;;5066356;28;20015;-65
2021/11/12 08:40:16;;;;;;;;;;;;;;;;;;5060607;28;19925;-65
2021/11/12 08:42:46;;;;;;;;;;;;;;;;;;5067075;28;19932;-66
2021/11/12 08:45:17;;;;;;;;;;;;;;;;;;5074422;28;19928;-67
2021/11/12 08:47:47;;;;;;;;;;;;;;;;;;5062213;28;20023;-67
2021/11/12 08:50:17;;;;;;;;;;;;;;;;;;5072223;28;20365;-68
2021/11/12 08:52:44;;;;;;;;;;;;;;;;;;5068202;28;19940;-67
2021/11/12 08:55:11;;;;;;;;;;;;;;;;;;5072643;28;19920;-65
2021/11/12 08:57:38;;;;;;;;;;;;;;;;;;5065928;28;20208;-65
2021/11/12 09:00:05;;;;;;;;;;;;;;;;;;5067216;28;20289;-66
2021/11/12 09:02:32;;;;;;;;;;;;;;;;;;5072262;28;19975;-66
2021/11/12 09:04:59;;;;;;;;;;;;;;;;;;5068526;28;19925;-66
2021/11/12 09:07:26;;;;;;;;;;;;;;;;;;5073920;28;19932;-64
2021/11/12 09:09:56;;;;;;;;;;;;;;;;;;5069943;28;19991;-66
2021/11/12 09:12:23;;;;;;;;;;;;;;;;;;5067415;28;19925;-67
2021/11/12 09:14:51;;;;;;;;;;;;;;;;;;5068696;28;19966;-67
2021/11/12 09:17:18;;;;;;;;;;;;;;;;;;5064317;28;19928;-67
2021/11/12 09:19:50;;;;;;;;;;;;;;;;;;5066718;28;20403;-65
2021/11/12 09:22:17;;;;;;;;;;;;;;;;;;5060848;28;20007;-66
2021/11/12 09:24:44;;;;;;;;;;;;;;;;;;5062447;28;20291;-66
2021/11/12 09:27:11;;;;;;;;;;;;;;;;;;5056164;28;19957;-70
2021/11/12 09:32:15;;;;;;;;;;;;;;;;;;5471468;22;19933;-66
2021/11/12 09:34:42;;;;;;;;;;;;;;;;;;4966051;28;20402;-66
2021/11/12 09:37:09;;;;;;;;;;;;;;;;;;4966556;28;19969;-64
2021/11/12 09:39:36;;;;;;;;;;;;;;;;;;4965894;28;19933;-65
2021/11/12 09:42:03;;;;;;;;;;;;;;;;;;4984897;28;19929;-61
2021/11/12 09:44:30;;;;;;;;;;;;;;;;;;4996399;22;20395;-60
2021/11/12 09:46:57;;;;;;;;;;;;;;;;;;4952520;28;19926;-60
2021/11/12 09:49:24;;;;;;;;;;;;;;;;;;4959941;28;19932;-60
2021/11/12 09:51:51;;;;;;;;;;;;;;;;;;4954359;28;20310;-60
2021/11/12 09:54:17;;;;;;;;;;;;;;;;;;4950028;28;19930;-60
2021/11/12 09:56:44;;;;;;;;;;;;;;;;;;4945304;28;19942;-60
2021/11/12 09:59:11;;;;;;;;;;;;;;;;;;4947456;28;19969;-61
2021/11/12 10:01:40;;;;;;;;;;;;;;;;;;4948982;28;19969;-58
2021/11/12 10:04:09;;;;;;;;;;;;;;;;;;4948395;28;19946;-59
2021/11/12 10:06:36;;;;;;;;;;;;;;;;;;4958129;28;20390;-61
2021/11/12 10:09:03;;;;;;;;;;;;;;;;;;4941386;28;19927;-60
2021/11/12 10:11:30;;;;;;;;;;;;;;;;;;4948756;28;20022;-61
2021/11/12 10:14:01;;;;;;;;;;;;;;;;;;4940664;28;19932;-61
2021/11/12 10:16:36;;;;;;;;;;;;;;;;;;4947975;28;20021;-63
2021/11/12 10:19:03;;;;;;;;;;;;;;;;;;4950468;28;19927;-60
2021/11/12 10:21:30;;;;;;;;;;;;;;;;;;4949803;28;19931;-63
2021/11/12 10:23:57;;;;;;;;;;;;;;;;;;4942438;28;19937;-58
2021/11/12 10:26:24;;;;;;;;;;;;;;;;;;4951716;28;19966;-60
2021/11/12 10:28:51;;;;;;;;;;;;;;;;;;4945491;28;19933;-61
2021/11/12 10:31:18;;;;;;;;;;;;;;;;;;4942869;28;20409;-61
2021/11/12 10:33:45;;;;;;;;;;;;;;;;;;4953115;28;20021;-58
2021/11/12 10:36:13;;;;;;;;;;;;;;;;;;4940678;28;19927;-61
2021/11/12 10:38:41;;;;;;;;;;;;;;;;;;4948653;28;19926;-62
2021/11/12 10:41:08;;;;;;;;;;;;;;;;;;4940277;28;20429;-64
2021/11/12 10:43:35;;;;;;;;;;;;;;;;;;4944679;28;19926;-58
2021/11/12 10:46:02;;;;;;;;;;;;;;;;;;4946911;28;19933;-55
2021/11/12 10:48:29;;;;;;;;;;;;;;;;;;4944081;28;20308;-61
2021/11/12 10:50:56;;;;;;;;;;;;;;;;;;4940864;28;19931;-61
2021/11/12 10:53:24;;;;;;;;;;;;;;;;;;4944238;28;20018;-65
2021/11/12 10:55:51;;;;;;;;;;;;;;;;;;4943996;28;19935;-62
2021/11/12 10:58:18;;;;;;;;;;;;;;;;;;4943509;28;19934;-64
2021/11/12 11:00:46;;;;;;;;;;;;;;;;;;4937879;28;20025;-62
2021/11/12 11:03:13;;;;;;;;;;;;;;;;;;4938169;28;19941;-65
2021/11/12 11:05:40;;;;;;;;;;;;;;;;;;4947642;28;20028;-59
2021/11/12 11:08:07;;;;;;;;;;;;;;;;;;4937344;28;19931;-65
2021/11/12 11:10:34;;;;;;;;;;;;;;;;;;4945444;28;20294;-62
2021/11/12 11:13:01;;;;;;;;;;;;;;;;;;4945172;28;19943;-62
2021/11/12 11:15:28;;;;;;;;;;;;;;;;;;4946969;28;19984;-62
2021/11/12 11:17:55;;;;;;;;;;;;;;;;;;4940364;28;19963;-62
2021/11/12 11:20:22;;;;;;;;;;;;;;;;;;4945784;28;19931;-61
2021/11/12 11:22:49;;;;;;;;;;;;;;;;;;4947837;28;19933;-60
2021/11/12 11:25:16;;;;;;;;;;;;;;;;;;4947779;28;20586;-61
2021/11/12 11:27:43;;;;;;;;;;;;;;;;;;4943480;28;19926;-61
2021/11/12 11:30:10;;;;;;;;;;;;;;;;;;4953577;28;20049;-62
2021/11/12 11:32:37;;;;;;;;;;;;;;;;;;4950537;28;19935;-61
2021/11/12 11:35:04;;;;;;;;;;;;;;;;;;4945994;28;19926;-64
2021/11/12 11:37:32;;;;;;;;;;;;;;;;;;4943266;28;19927;-62
2021/11/12 11:40:00;;;;;;;;;;;;;;;;;;4945277;28;19926;-60
2021/11/12 11:42:27;;;;;;;;;;;;;;;;;;4948305;28;19926;-64
2021/11/12 11:44:53;;;;;;;;;;;;;;;;;;4947588;28;19949;-58
2021/11/12 11:47:23;;;;;;;;;;;;;;;;;;4947570;28;20404;-62
2021/11/12 11:49:50;;;;;;;;;;;;;;;;;;4946366;28;19930;-59
2021/11/12 11:52:17;;;;;;;;;;;;;;;;;;4951567;28;19926;-62
2021/11/12 11:54:44;;;;;;;;;;;;;;;;;;4948699;28;19927;-62
2021/11/12 11:57:11;;;;;;;;;;;;;;;;;;4947034;28;20425;-62
2021/11/12 11:59:40;;;;;;;;;;;;;;;;;;4941531;28;20568;-62
2021/11/12 12:02:07;;;;;;;;;;;;;;;;;;4939852;28;20291;-62
2021/11/12 12:04:34;;;;;;;;;;;;;;;;;;4949126;28;19932;-62
2021/11/12 12:07:01;;;;;;;;;;;;;;;;;;4946550;28;19933;-62
2021/11/12 12:09:28;;;;;;;;;;;;;;;;;;4945286;28;19927;-62
2021/11/12 12:11:57;;;;;;;;;;;;;;;;;;4946361;28;19927;-65
2021/11/12 12:14:24;;;;;;;;;;;;;;;;;;4943519;28;19933;-61
2021/11/12 12:16:52;;;;;;;;;;;;;;;;;;4947296;28;20301;-64
2021/11/12 12:19:19;;;;;;;;;;;;;;;;;;4945447;28;19926;-62
2021/11/12 12:22:08;;;;;;;;;;;;;;;;;;4946233;28;20404;-62
2021/11/12 12:33:10;;;;;;;;;;;;;;;;;;4945617;28;20274;-62
2021/11/12 13:20:23;;;;;;;;;;;;;;;;;;4943920;28;19926;-61
2021/11/12 13:22:56;;;;;;;;;;;;;;;;;;4943694;28;19934;-61
2021/11/12 13:25:23;;;;;;;;;;;;;;;;;;4947793;28;19930;-62
2021/11/12 13:27:53;;;;;;;;;;;;;;;;;;4943864;28;19926;-61
2021/11/12 13:30:20;;;;;;;;;;;;;;;;;;4946299;28;20435;-61
2021/11/12 13:32:47;;;;;;;;;;;;;;;;;;4945723;28;19931;-63
2021/11/12 13:35:14;;;;;;;;;;;;;;;;;;4945473;28;19973;-61
2021/11/12 13:37:41;;;;;;;;;;;;;;;;;;4947170;28;19934;-63
2021/11/12 13:40:08;;;;;;;;;;;;;;;;;;4945761;28;19934;-61
2021/11/12 13:42:35;;;;;;;;;;;;;;;;;;4943407;28;19958;-58
2021/11/12 13:45:02;;;;;;;;;;;;;;;;;;4952672;28;19926;-60
2021/11/12 13:47:29;;;;;;;;;;;;;;;;;;4945637;28;19933;-59
2021/11/12 13:49:56;;;;;;;;;;;;;;;;;;4942619;28;19932;-59
2021/11/12 13:52:27;;;;;;;;;;;;;;;;;;4943526;28;20013;-60
2021/11/12 13:54:54;;;;;;;;;;;;;;;;;;4946518;28;20386;-58
2021/11/12 13:57:21;;;;;;;;;;;;;;;;;;4945263;28;19996;-66
2021/11/12 13:59:48;;;;;;;;;;;;;;;;;;4946856;28;19933;-60
2021/11/12 14:02:15;;;;;;;;;;;;;;;;;;4935592;28;19937;-63
2021/11/12 14:04:42;;;;;;;;;;;;;;;;;;4943313;28;20135;-64
2021/11/12 14:07:09;;;;;;;;;;;;;;;;;;4948176;28;19965;-60
2021/11/12 14:09:36;;;;;;;;;;;;;;;;;;4948465;28;20330;-60
2021/11/12 14:12:06;;;;;;;;;;;;;;;;;;4945818;28;19933;-60
2021/11/12 14:14:33;;;;;;;;;;;;;;;;;;4945740;28;20306;-60
2021/11/12 14:17:04;;;;;;;;;;;;;;;;;;4946166;28;20419;-58
2021/11/12 14:22:18;;;;;;;;;;;;;;;;;;4942469;28;19922;-61
2021/11/12 14:24:51;;;;;;;;;;;;;;;;;;4945113;28;19930;-61
2021/11/12 14:27:28;;;;;;;;;;;;;;;;;;4943334;28;19934;-62
2021/11/12 14:30:24;;;;;;;;;;;;;;;;;;4943811;28;19973;-60
2021/11/12 14:35:39;;;;;;;;;;;;;;;;;;4941984;28;19929;-57
2021/11/12 14:38:13;;;;;;;;;;;;;;;;;;4945432;28;19934;-55
2021/11/12 14:40:48;;;;;;;;;;;;;;;;;;4939852;28;20252;-59
2021/11/12 14:43:22;;;;;;;;;;;;;;;;;;4945519;28;19927;-57
2021/11/12 14:45:55;;;;;;;;;;;;;;;;;;4944374;28;19934;-59
2021/11/12 14:48:26;;;;;;;;;;;;;;;;;;4943183;28;20346;-60
2021/11/12 14:50:58;;;;;;;;;;;;;;;;;;4945115;28;19942;-63
2021/11/12 14:53:28;;;;;;;;;;;;;;;;;;4943734;28;19930;-59
2021/11/12 14:55:59;;;;;;;;;;;;;;;;;;4947226;28;19927;-59
2021/11/12 14:58:26;;;;;;;;;;;;;;;;;;4943248;28;20298;-55
2021/11/12 15:00:53;;;;;;;;;;;;;;;;;;4945274;28;20302;-60
2021/11/12 15:03:20;;;;;;;;;;;;;;;;;;4944187;28;19927;-58
2021/11/12 15:05:48;;;;;;;;;;;;;;;;;;4944296;28;19934;-61
2021/11/12 15:08:20;;;;;;;;;;;;;;;;;;4940962;28;19933;-58
2021/11/12 15:10:47;;;;;;;;;;;;;;;;;;4947141;28;19941;-59
2021/11/12 15:13:15;;;;;;;;;;;;;;;;;;4942928;28;20458;-63
2021/11/12 15:15:42;;;;;;;;;;;;;;;;;;4947548;28;19993;-61
2021/11/12 15:18:10;;;;;;;;;;;;;;;;;;4947911;28;20383;-60
2021/11/12 15:20:39;;;;;;;;;;;;;;;;;;4950281;28;19963;-61
2021/11/12 15:28:51;;;;;;;;;;;;;;;;;;4942320;28;19923;-60
2021/11/12 15:31:21;;;;;;;;;;;;;;;;;;4947541;28;19927;-62
2021/11/12 15:33:56;;;;;;;;;;;;;;;;;;4941925;28;20425;-61
2021/11/12 15:36:23;;;;;;;;;;;;;;;;;;4948245;28;20449;-60
2021/11/12 15:38:53;;;;;;;;;;;;;;;;;;4946315;28;20010;-61
2021/11/12 15:41:36;;;;;;;;;;;;;;;;;;4951994;28;20013;-60
2021/11/12 15:44:12;;;;;;;;;;;;;;;;;;4952656;28;20025;-63
2021/11/12 15:46:41;;;;;;;;;;;;;;;;;;4945472;28;20064;-60
2021/11/12 15:49:08;;;;;;;;;;;;;;;;;;4943494;28;20383;-57
2021/11/12 15:51:37;;;;;;;;;;;;;;;;;;4950546;28;19974;-58
2021/11/12 15:54:18;;;;;;;;;;;;;;;;;;4952497;28;20031;-53
2021/11/12 15:57:11;;;;;;;;;;;;;;;;;;4961031;28;19927;-61
2021/11/12 15:59:51;;;;;;;;;;;;;;;;;;4949934;28;20064;-61
2021/11/12 16:10:54;;;;;;;;;;;;;;;;;;4946610;28;19934;-60
2021/11/12 16:13:22;;;;;;;;;;;;;;;;;;4943652;28;19927;-61
2021/11/12 16:18:41;;;;;;;;;;;;;;;;;;4957508;28;20383;-62
2021/11/12 16:21:27;;;;;;;;;;;;;;;;;;4951469;28;19931;-62
2021/11/12 16:24:11;;;;;;;;;;;;;;;;;;4945664;28;20014;-61
2021/11/12 16:26:41;;;;;;;;;;;;;;;;;;4949557;28;19938;-61
2021/11/12 16:29:23;;;;;;;;;;;;;;;;;;4951804;28;19926;-62
2021/11/12 16:31:50;;;;;;;;;;;;;;;;;;4945456;28;19926;-61
2021/11/12 16:34:20;;;;;;;;;;;;;;;;;;4941456;28;20376;-61
2021/11/12 16:36:51;;;;;;;;;;;;;;;;;;4944544;28;19931;-61
2021/11/12 16:39:24;;;;;;;;;;;;;;;;;;4953837;28;20435;-61
2021/11/12 16:41:54;;;;;;;;;;;;;;;;;;4951590;28;20402;-61
2021/11/12 16:44:25;;;;;;;;;;;;;;;;;;4952186;28;20300;-59
2021/11/12 16:47:04;;;;;;;;;;;;;;;;;;4948185;28;19935;-62
2021/11/12 16:49:36;;;;;;;;;;;;;;;;;;4950643;28;20021;-63
2021/11/12 16:52:18;;;;;;;;;;;;;;;;;;4946949;28;19930;-62
2021/11/12 16:54:54;;;;;;;;;;;;;;;;;;4952183;28;19930;-61
2021/11/12 16:57:45;;;;;;;;;;;;;;;;;;4950696;28;19997;-61
2021/11/12 17:00:26;;;;;;;;;;;;;;;;;;4950602;28;20009;-61
2021/11/12 17:02:55;;;;;;;;;;;;;;;;;;4946486;28;19934;-61
2021/11/12 17:05:26;;;;;;;;;;;;;;;;;;4951325;28;19942;-61
2021/11/12 17:08:06;;;;;;;;;;;;;;;;;;4945624;28;19931;-62
2021/11/12 17:10:48;;;;;;;;;;;;;;;;;;4954664;28;20008;-60
2021/11/12 17:13:31;;;;;;;;;;;;;;;;;;4950222;28;19926;-60
2021/11/12 17:46:26;;;;;;;;;;;;;;;;;;4952965;28;19921;-59
2021/11/12 17:48:59;;;;;;;;;;;;;;;;;;4949754;28;19934;-60
2021/11/12 17:51:39;;;;;;;;;;;;;;;;;;4947150;28;19934;-61
2021/11/12 18:02:24;;;;;;;;;;;;;;;;;;4948700;28;19937;-59
2021/11/12 21:45:07;;;;;;;;;;;;;;;;;;4956230;28;20424;-61
2021/11/12 21:47:34;;;;;;;;;;;;;;;;;;4948024;28;19926;-60
2021/11/12 21:50:01;;;;;;;;;;;;;;;;;;4965511;28;19965;-60
2021/11/12 21:52:28;;;;;;;;;;;;;;;;;;4950734;28;20026;-61
2021/11/12 21:54:55;;;;;;;;;;;;;;;;;;4949666;28;20117;-60
2021/11/12 21:57:22;;;;;;;;;;;;;;;;;;4972607;22;19926;-66
2021/11/12 21:59:49;;;;;;;;;;;;;;;;;;4953427;28;19999;-66
2021/11/12 22:02:16;;;;;;;;;;;;;;;;;;4961214;28;19933;-66
2021/11/12 22:04:43;;;;;;;;;;;;;;;;;;4961482;28;20344;-65
2021/11/12 22:07:10;;;;;;;;;;;;;;;;;;5032550;28;20016;-66
2021/11/12 22:09:39;;;;;;;;;;;;;;;;;;5056029;28;20417;-64
2021/11/12 22:12:06;;;;;;;;;;;;;;;;;;5061140;28;19930;-65
2021/11/12 22:14:33;;;;;;;;;;;;;;;;;;5056295;28;20272;-65
2021/11/12 22:17:00;;;;;;;;;;;;;;;;;;5061635;28;19999;-66
2021/11/12 22:19:27;;;;;;;;;;;;;;;;;;5060402;28;19925;-65
2021/11/12 22:21:54;;;;;;;;;;;;;;;;;;5055211;28;19924;-64
2021/11/12 22:24:21;;;;;;;;;;;;;;;;;;5058144;28;20023;-65
2021/11/12 22:26:49;;;;;;;;;;;;;;;;;;5060541;28;19936;-69
2021/11/12 22:29:16;;;;;;;;;;;;;;;;;;5058164;28;19936;-66
2021/11/12 22:31:43;;;;;;;;;;;;;;;;;;5061221;28;20281;-67
2021/11/12 22:34:10;;;;;;;;;;;;;;;;;;5054682;28;20023;-66
2021/11/12 22:36:39;;;;;;;;;;;;;;;;;;5054347;28;20011;-67
2021/11/12 22:39:05;;;;;;;;;;;;;;;;;;5055855;28;20351;-65
2021/11/12 22:41:32;;;;;;;;;;;;;;;;;;5062805;28;20012;-65
2021/11/12 22:44:00;;;;;;;;;;;;;;;;;;5069661;28;19929;-65
2021/11/12 22:46:26;;;;;;;;;;;;;;;;;;5067195;28;19924;-65
2021/11/12 22:48:53;;;;;;;;;;;;;;;;;;5057813;28;19925;-65
2021/11/12 22:51:20;;;;;;;;;;;;;;;;;;5056401;28;19929;-66
2021/11/12 22:53:47;;;;;;;;;;;;;;;;;;5060732;28;19933;-65
2021/11/12 22:56:14;;;;;;;;;;;;;;;;;;5056522;28;20407;-67
2021/11/12 22:58:41;;;;;;;;;;;;;;;;;;5061434;28;20011;-67
2021/11/12 23:01:08;;;;;;;;;;;;;;;;;;5062498;28;19968;-66
2021/11/12 23:03:35;;;;;;;;;;;;;;;;;;5055261;28;19931;-66
2021/11/12 23:06:02;;;;;;;;;;;;;;;;;;5056823;28;19935;-66
2021/11/12 23:08:29;;;;;;;;;;;;;;;;;;5057317;28;19929;-67
2021/11/12 23:10:56;;;;;;;;;;;;;;;;;;5060990;28;19946;-66
2021/11/12 23:13:25;;;;;;;;;;;;;;;;;;5062297;28;19976;-67
2021/11/12 23:15:52;;;;;;;;;;;;;;;;;;5075043;28;20295;-68
2021/11/12 23:18:18;;;;;;;;;;;;;;;;;;5064097;28;20011;-66
2021/11/12 23:20:45;;;;;;;;;;;;;;;;;;5065710;28;19924;-67
2021/11/12 23:23:12;;;;;;;;;;;;;;;;;;5066804;28;19924;-66
2021/11/12 23:25:39;;;;;;;;;;;;;;;;;;5070055;28;19928;-67
2021/11/12 23:28:06;;;;;;;;;;;;;;;;;;5064015;28;19951;-66
2021/11/12 23:30:33;;;;;;;;;;;;;;;;;;5067278;28;19924;-67
2021/11/12 23:33:00;;;;;;;;;;;;;;;;;;5067553;28;19924;-68
2021/11/12 23:35:27;;;;;;;;;;;;;;;;;;5077105;28;19971;-67
2021/11/12 23:37:54;;;;;;;;;;;;;;;;;;5064079;28;20376;-68
2021/11/12 23:40:21;;;;;;;;;;;;;;;;;;5063592;28;20301;-66
2021/11/12 23:42:50;;;;;;;;;;;;;;;;;;5056204;28;19924;-67
2021/11/12 23:45:17;;;;;;;;;;;;;;;;;;5058559;28;19925;-67
2021/11/12 23:47:44;;;;;;;;;;;;;;;;;;5070187;28;20480;-67
2021/11/12 23:50:11;;;;;;;;;;;;;;;;;;5064534;28;20315;-66
2021/11/12 23:52:38;;;;;;;;;;;;;;;;;;5065273;28;19938;-67
2021/11/12 23:55:05;;;;;;;;;;;;;;;;;;5064309;28;19925;-68
2021/11/12 23:57:32;;;;;;;;;;;;;;;;;;5065087;28;19924;-67
2021/11/12 23:59:59;;;;;;;;;;;;;;;;;;5065087;28;19934;-68
